sensor_id;sensor_type;location;lat;lon;timestamp;pressure;altitude;pressure_sealevel;temperature;humidity
60055;BME280;45930;53.514;55.904;2023-04-10T00:00:08;49213.19;;;-149.77;48.94
60055;BME280;45930;53.514;55.904;2023-04-10T00:01:10;49268.63;;;-149.77;49.31
60055;BME280;45930;53.514;55.904;2023-04-10T00:02:11;49266.66;;;-149.77;49.34
60055;BME280;45930;53.514;55.904;2023-04-10T00:03:11;49266.66;;;-149.77;49.44
60055;BME280;45930;53.514;55.904;2023-04-10T00:04:12;49270.63;;;-149.77;49.36
60055;BME280;45930;53.514;55.904;2023-04-10T00:05:14;49260.72;;;-149.77;49.55
60055;BME280;45930;53.514;55.904;2023-04-10T00:06:15;49280.53;;;-149.77;49.77
60055;BME280;45930;53.514;55.904;2023-04-10T00:07:16;49290.44;;;-149.77;49.97
60055;BME280;45930;53.514;55.904;2023-04-10T00:08:17;49242.91;;;-149.77;50.21
60055;BME280;45930;53.514;55.904;2023-04-10T00:09:18;49272.59;;;-149.77;50.38
60055;BME280;45930;53.514;55.904;2023-04-10T00:10:19;49276.56;;;-149.77;50.30
60055;BME280;45930;53.514;55.904;2023-04-10T00:11:20;49264.69;;;-149.77;50.45
60055;BME280;45930;53.514;55.904;2023-04-10T00:12:20;49266.66;;;-149.77;50.78
60055;BME280;45930;53.514;55.904;2023-04-10T00:13:21;49290.44;;;-149.77;51.02
60055;BME280;45930;53.514;55.904;2023-04-10T00:14:22;49262.69;;;-149.77;50.80
60055;BME280;45930;53.514;55.904;2023-04-10T00:15:23;49278.53;;;-149.77;50.71
60055;BME280;45930;53.514;55.904;2023-04-10T00:16:25;49256.75;;;-149.77;50.78
60055;BME280;45930;53.514;55.904;2023-04-10T00:17:26;49282.50;;;-149.77;50.85
60055;BME280;45930;53.514;55.904;2023-04-10T00:18:26;49286.47;;;-149.77;50.83
60055;BME280;45930;53.514;55.904;2023-04-10T00:19:28;49268.63;;;-149.77;50.71
60055;BME280;45930;53.514;55.904;2023-04-10T00:20:28;49264.69;;;-149.77;50.81
60055;BME280;45930;53.514;55.904;2023-04-10T00:21:30;49254.78;;;-149.77;50.68
60055;BME280;45930;53.514;55.904;2023-04-10T00:22:30;49231.00;;;-149.77;50.67
60055;BME280;45930;53.514;55.904;2023-04-10T00:23:32;49246.84;;;-149.77;51.00
60055;BME280;45930;53.514;55.904;2023-04-10T00:24:34;49252.78;;;-149.77;50.97
60055;BME280;45930;53.514;55.904;2023-04-10T00:25:35;49262.69;;;-149.77;50.79
60055;BME280;45930;53.514;55.904;2023-04-10T00:26:35;49276.56;;;-149.77;50.82
60055;BME280;45930;53.514;55.904;2023-04-10T00:27:36;49231.00;;;-149.77;50.71
60055;BME280;45930;53.514;55.904;2023-04-10T00:28:37;49278.53;;;-149.77;50.58
60055;BME280;45930;53.514;55.904;2023-04-10T00:29:38;49280.53;;;-149.77;51.01
60055;BME280;45930;53.514;55.904;2023-04-10T00:30:38;49258.75;;;-149.77;50.44
60055;BME280;45930;53.514;55.904;2023-04-10T00:31:39;49236.94;;;-149.77;49.56
60055;BME280;45930;53.514;55.904;2023-04-10T00:32:40;49272.59;;;-149.77;49.51
60055;BME280;45930;53.514;55.904;2023-04-10T00:33:41;49292.41;;;-149.77;50.00
60055;BME280;45930;53.514;55.904;2023-04-10T00:34:42;49258.75;;;-149.77;50.36
60055;BME280;45930;53.514;55.904;2023-04-10T00:35:42;49268.63;;;-149.77;49.81
60055;BME280;45930;53.514;55.904;2023-04-10T00:36:44;49306.28;;;-149.77;50.07
60055;BME280;45930;53.514;55.904;2023-04-10T00:37:46;49262.69;;;-149.77;50.50
60055;BME280;45930;53.514;55.904;2023-04-10T00:38:47;49304.28;;;-149.77;50.73
60055;BME280;45930;53.514;55.904;2023-04-10T00:39:49;49280.53;;;-149.77;50.88
60055;BME280;45930;53.514;55.904;2023-04-10T00:40:50;49280.53;;;-149.77;50.73
60055;BME280;45930;53.514;55.904;2023-04-10T00:41:50;49282.50;;;-149.77;50.91
60055;BME280;45930;53.514;55.904;2023-04-10T00:42:51;49254.78;;;-149.77;51.18
60055;BME280;45930;53.514;55.904;2023-04-10T00:43:56;49250.81;;;-149.77;50.97
60055;BME280;45930;53.514;55.904;2023-04-10T00:44:57;49258.75;;;-149.77;50.88
60055;BME280;45930;53.514;55.904;2023-04-10T00:45:58;49292.41;;;-149.77;51.02
60055;BME280;45930;53.514;55.904;2023-04-10T00:46:59;49274.59;;;-149.77;50.69
60055;BME280;45930;53.514;55.904;2023-04-10T00:48:00;49258.75;;;-149.77;50.58
60055;BME280;45930;53.514;55.904;2023-04-10T00:49:01;49270.63;;;-149.77;50.64
60055;BME280;45930;53.514;55.904;2023-04-10T00:50:03;49274.59;;;-149.77;50.69
60055;BME280;45930;53.514;55.904;2023-04-10T00:51:05;49272.59;;;-149.77;50.43
60055;BME280;45930;53.514;55.904;2023-04-10T00:52:06;49272.59;;;-149.77;50.68
60055;BME280;45930;53.514;55.904;2023-04-10T00:53:07;49292.41;;;-149.77;50.86
60055;BME280;45930;53.514;55.904;2023-04-10T00:54:08;49262.69;;;-149.77;50.91
60055;BME280;45930;53.514;55.904;2023-04-10T00:55:10;49270.63;;;-149.77;51.01
60055;BME280;45930;53.514;55.904;2023-04-10T00:56:11;49286.47;;;-149.77;50.53
60055;BME280;45930;53.514;55.904;2023-04-10T00:57:12;49282.50;;;-149.77;50.37
60055;BME280;45930;53.514;55.904;2023-04-10T00:58:13;49270.63;;;-149.77;50.56
60055;BME280;45930;53.514;55.904;2023-04-10T00:59:14;49266.66;;;-149.77;51.02
60055;BME280;45930;53.514;55.904;2023-04-10T01:00:16;49300.34;;;-149.77;51.33
60055;BME280;45930;53.514;55.904;2023-04-10T01:01:16;49286.47;;;-149.77;51.47
60055;BME280;45930;53.514;55.904;2023-04-10T01:02:18;49270.63;;;-149.77;51.50
60055;BME280;45930;53.514;55.904;2023-04-10T01:03:20;49292.41;;;-149.77;51.55
60055;BME280;45930;53.514;55.904;2023-04-10T01:04:21;49290.44;;;-149.77;51.74
60055;BME280;45930;53.514;55.904;2023-04-10T01:05:23;49262.69;;;-149.77;51.83
60055;BME280;45930;53.514;55.904;2023-04-10T01:06:41;49286.47;;;-149.77;51.75
60055;BME280;45930;53.514;55.904;2023-04-10T01:07:56;49282.50;;;-149.77;51.70
60055;BME280;45930;53.514;55.904;2023-04-10T01:10:25;49296.38;;;-149.77;51.94
60055;BME280;45930;53.514;55.904;2023-04-10T01:16:04;49262.69;;;-149.77;52.85
60055;BME280;45930;53.514;55.904;2023-04-10T01:20:03;49274.59;;;-149.77;53.32
60055;BME280;45930;53.514;55.904;2023-04-10T01:21:09;49256.75;;;-149.77;53.44
60055;BME280;45930;53.514;55.904;2023-04-10T01:22:13;49254.78;;;-149.77;53.40
60055;BME280;45930;53.514;55.904;2023-04-10T01:24:54;49266.66;;;-149.77;53.66
60055;BME280;45930;53.514;55.904;2023-04-10T01:26:06;49278.53;;;-149.77;53.64
60055;BME280;45930;53.514;55.904;2023-04-10T01:29:19;49282.50;;;-149.77;53.14
60055;BME280;45930;53.514;55.904;2023-04-10T01:30:21;49278.53;;;-149.77;53.02
60055;BME280;45930;53.514;55.904;2023-04-10T01:32:29;49266.66;;;-149.77;53.02
60055;BME280;45930;53.514;55.904;2023-04-10T01:33:43;49274.59;;;-149.77;53.17
60055;BME280;45930;53.514;55.904;2023-04-10T01:34:50;49278.53;;;-149.77;53.15
60055;BME280;45930;53.514;55.904;2023-04-10T01:35:54;49282.50;;;-149.77;53.14
60055;BME280;45930;53.514;55.904;2023-04-10T01:37:01;49250.81;;;-149.77;53.10
60055;BME280;45930;53.514;55.904;2023-04-10T01:38:04;49266.66;;;-149.77;53.47
60055;BME280;45930;53.514;55.904;2023-04-10T01:39:07;49266.66;;;-149.77;53.57
60055;BME280;45930;53.514;55.904;2023-04-10T01:40:13;49244.88;;;-149.77;53.61
60055;BME280;45930;53.514;55.904;2023-04-10T01:41:15;49262.69;;;-149.77;53.55
60055;BME280;45930;53.514;55.904;2023-04-10T01:42:18;49250.81;;;-149.77;53.42
60055;BME280;45930;53.514;55.904;2023-04-10T01:43:21;49233.00;;;-149.77;53.60
60055;BME280;45930;53.514;55.904;2023-04-10T01:44:30;49262.69;;;-149.77;53.53
60055;BME280;45930;53.514;55.904;2023-04-10T01:45:32;49258.75;;;-149.77;53.64
60055;BME280;45930;53.514;55.904;2023-04-10T01:46:33;49250.81;;;-149.77;53.88
60055;BME280;45930;53.514;55.904;2023-04-10T01:47:36;49248.84;;;-149.77;53.80
60055;BME280;45930;53.514;55.904;2023-04-10T01:48:37;49254.78;;;-149.77;53.56
60055;BME280;45930;53.514;55.904;2023-04-10T01:49:38;49258.75;;;-149.77;53.41
60055;BME280;45930;53.514;55.904;2023-04-10T01:50:44;49252.78;;;-149.77;53.50
60055;BME280;45930;53.514;55.904;2023-04-10T01:51:46;49262.69;;;-149.77;53.25
60055;BME280;45930;53.514;55.904;2023-04-10T01:52:49;49246.84;;;-149.77;53.39
60055;BME280;45930;53.514;55.904;2023-04-10T01:53:51;49250.81;;;-149.77;52.72
60055;BME280;45930;53.514;55.904;2023-04-10T01:54:52;49252.78;;;-149.77;52.88
60055;BME280;45930;53.514;55.904;2023-04-10T01:55:53;49234.97;;;-149.77;53.06
60055;BME280;45930;53.514;55.904;2023-04-10T01:56:54;49244.88;;;-149.77;52.76
60055;BME280;45930;53.514;55.904;2023-04-10T01:57:56;49268.63;;;-149.77;52.97
60055;BME280;45930;53.514;55.904;2023-04-10T01:58:58;49278.53;;;-149.77;52.81
60055;BME280;45930;53.514;55.904;2023-04-10T01:59:59;49258.75;;;-149.77;52.83
60055;BME280;45930;53.514;55.904;2023-04-10T02:01:00;49250.81;;;-149.77;53.05
60055;BME280;45930;53.514;55.904;2023-04-10T02:02:01;49282.50;;;-149.77;52.67
60055;BME280;45930;53.514;55.904;2023-04-10T02:03:01;49252.78;;;-149.77;52.47
60055;BME280;45930;53.514;55.904;2023-04-10T02:04:02;49262.69;;;-149.77;52.22
60055;BME280;45930;53.514;55.904;2023-04-10T02:05:03;49282.50;;;-149.77;52.18
60055;BME280;45930;53.514;55.904;2023-04-10T02:06:28;49258.75;;;-149.77;52.27
60055;BME280;45930;53.514;55.904;2023-04-10T02:07:40;49280.53;;;-149.77;52.21
60055;BME280;45930;53.514;55.904;2023-04-10T02:08:53;49260.72;;;-149.77;52.05
60055;BME280;45930;53.514;55.904;2023-04-10T02:12:37;49250.81;;;-149.77;51.17
60055;BME280;45930;53.514;55.904;2023-04-10T02:13:39;49270.63;;;-149.77;51.13
60055;BME280;45930;53.514;55.904;2023-04-10T02:14:45;49242.91;;;-149.77;51.27
60055;BME280;45930;53.514;55.904;2023-04-10T02:15:49;49252.78;;;-149.77;51.48
60055;BME280;45930;53.514;55.904;2023-04-10T02:16:52;49246.84;;;-149.77;51.65
60055;BME280;45930;53.514;55.904;2023-04-10T02:17:55;49248.84;;;-149.77;51.64
60055;BME280;45930;53.514;55.904;2023-04-10T02:18:59;49248.84;;;-149.77;51.68
60055;BME280;45930;53.514;55.904;2023-04-10T02:20:02;49282.50;;;-149.77;51.73
60055;BME280;45930;53.514;55.904;2023-04-10T02:21:05;49264.69;;;-149.77;51.95
60055;BME280;45930;53.514;55.904;2023-04-10T02:22:06;49274.59;;;-149.77;52.16
60055;BME280;45930;53.514;55.904;2023-04-10T02:23:08;49258.75;;;-149.77;52.32
60055;BME280;45930;53.514;55.904;2023-04-10T02:24:09;49256.75;;;-149.77;52.20
60055;BME280;45930;53.514;55.904;2023-04-10T02:25:10;49262.69;;;-149.77;52.42
60055;BME280;45930;53.514;55.904;2023-04-10T02:26:11;49234.97;;;-149.77;52.48
60055;BME280;45930;53.514;55.904;2023-04-10T02:27:12;49268.63;;;-149.77;52.25
60055;BME280;45930;53.514;55.904;2023-04-10T02:28:12;49272.59;;;-149.77;52.25
60055;BME280;45930;53.514;55.904;2023-04-10T02:29:13;49264.69;;;-149.77;52.26
60055;BME280;45930;53.514;55.904;2023-04-10T02:30:14;49250.81;;;-149.77;52.18
60055;BME280;45930;53.514;55.904;2023-04-10T02:31:16;49254.78;;;-149.77;52.34
60055;BME280;45930;53.514;55.904;2023-04-10T02:32:17;49260.72;;;-149.77;52.13
60055;BME280;45930;53.514;55.904;2023-04-10T02:33:18;49236.94;;;-149.77;52.44
60055;BME280;45930;53.514;55.904;2023-04-10T02:34:19;49231.00;;;-149.77;52.29
60055;BME280;45930;53.514;55.904;2023-04-10T02:35:20;49227.03;;;-149.77;52.31
60055;BME280;45930;53.514;55.904;2023-04-10T02:36:21;49250.81;;;-149.77;52.40
60055;BME280;45930;53.514;55.904;2023-04-10T02:37:22;49234.97;;;-149.77;52.63
60055;BME280;45930;53.514;55.904;2023-04-10T02:38:23;49238.94;;;-149.77;52.67
60055;BME280;45930;53.514;55.904;2023-04-10T02:39:23;49227.03;;;-149.77;52.63
60055;BME280;45930;53.514;55.904;2023-04-10T02:40:24;49244.88;;;-149.77;52.79
60055;BME280;45930;53.514;55.904;2023-04-10T02:41:25;49250.81;;;-149.77;52.98
60055;BME280;45930;53.514;55.904;2023-04-10T02:42:26;49248.84;;;-149.77;52.95
60055;BME280;45930;53.514;55.904;2023-04-10T02:43:27;49236.94;;;-149.77;52.99
60055;BME280;45930;53.514;55.904;2023-04-10T02:44:27;49250.81;;;-149.77;52.76
60055;BME280;45930;53.514;55.904;2023-04-10T02:45:28;49250.81;;;-149.77;52.87
60055;BME280;45930;53.514;55.904;2023-04-10T02:46:29;49231.00;;;-149.77;53.11
60055;BME280;45930;53.514;55.904;2023-04-10T02:47:30;49221.09;;;-149.77;53.37
60055;BME280;45930;53.514;55.904;2023-04-10T02:48:31;49221.09;;;-149.77;53.84
60055;BME280;45930;53.514;55.904;2023-04-10T02:49:32;49238.94;;;-149.77;53.71
60055;BME280;45930;53.514;55.904;2023-04-10T02:50:36;49221.09;;;-149.77;53.77
60055;BME280;45930;53.514;55.904;2023-04-10T02:51:37;49242.91;;;-149.77;53.54
60055;BME280;45930;53.514;55.904;2023-04-10T02:52:37;49238.94;;;-149.77;53.42
60055;BME280;45930;53.514;55.904;2023-04-10T02:53:38;49217.13;;;-149.77;53.29
60055;BME280;45930;53.514;55.904;2023-04-10T02:54:39;49217.13;;;-149.77;53.72
60055;BME280;45930;53.514;55.904;2023-04-10T02:55:40;49219.13;;;-149.77;53.51
60055;BME280;45930;53.514;55.904;2023-04-10T02:56:41;49199.31;;;-149.77;54.26
60055;BME280;45930;53.514;55.904;2023-04-10T02:57:42;49219.13;;;-149.77;53.99
60055;BME280;45930;53.514;55.904;2023-04-10T02:58:43;49215.16;;;-149.77;54.50
60055;BME280;45930;53.514;55.904;2023-04-10T02:59:49;49234.97;;;-149.77;54.49
60055;BME280;45930;53.514;55.904;2023-04-10T03:00:50;49207.25;;;-149.77;54.26
60055;BME280;45930;53.514;55.904;2023-04-10T03:01:54;49203.28;;;-149.77;54.62
60055;BME280;45930;53.514;55.904;2023-04-10T03:02:55;49229.03;;;-149.77;54.20
60055;BME280;45930;53.514;55.904;2023-04-10T03:03:56;49209.22;;;-149.77;54.40
60055;BME280;45930;53.514;55.904;2023-04-10T03:04:57;49175.53;;;-149.77;54.19
60055;BME280;45930;53.514;55.904;2023-04-10T03:05:58;49215.16;;;-149.77;54.07
60055;BME280;45930;53.514;55.904;2023-04-10T03:06:58;49201.28;;;-149.77;53.61
60055;BME280;45930;53.514;55.904;2023-04-10T03:07:59;49219.13;;;-149.77;53.28
60055;BME280;45930;53.514;55.904;2023-04-10T03:09:00;49187.44;;;-149.77;53.17
60055;BME280;45930;53.514;55.904;2023-04-10T03:10:01;49197.34;;;-149.77;53.61
60055;BME280;45930;53.514;55.904;2023-04-10T03:11:02;49189.41;;;-149.77;53.54
60055;BME280;45930;53.514;55.904;2023-04-10T03:12:03;49171.59;;;-149.77;53.54
60055;BME280;45930;53.514;55.904;2023-04-10T03:13:03;49173.56;;;-149.77;53.33
60055;BME280;45930;53.514;55.904;2023-04-10T03:14:05;49187.44;;;-149.77;52.97
60055;BME280;45930;53.514;55.904;2023-04-10T03:15:07;49165.63;;;-149.77;52.79
60055;BME280;45930;53.514;55.904;2023-04-10T03:16:08;49191.38;;;-149.77;52.72
60055;BME280;45930;53.514;55.904;2023-04-10T03:17:08;49201.28;;;-149.77;52.58
60055;BME280;45930;53.514;55.904;2023-04-10T03:18:12;49189.41;;;-149.77;52.35
60055;BME280;45930;53.514;55.904;2023-04-10T03:19:13;49195.34;;;-149.77;52.28
60055;BME280;45930;53.514;55.904;2023-04-10T03:20:14;49161.69;;;-149.77;52.15
60055;BME280;45930;53.514;55.904;2023-04-10T03:21:15;49201.28;;;-149.77;51.65
60055;BME280;45930;53.514;55.904;2023-04-10T03:22:16;49171.59;;;-149.77;51.63
60055;BME280;45930;53.514;55.904;2023-04-10T03:23:16;49175.53;;;-149.77;51.43
60055;BME280;45930;53.514;55.904;2023-04-10T03:24:17;49157.72;;;-149.77;51.07
60055;BME280;45930;53.514;55.904;2023-04-10T03:25:18;49183.47;;;-149.77;50.71
60055;BME280;45930;53.514;55.904;2023-04-10T03:26:19;49193.38;;;-149.77;50.43
60055;BME280;45930;53.514;55.904;2023-04-10T03:27:20;49143.84;;;-149.77;50.18
60055;BME280;45930;53.514;55.904;2023-04-10T03:28:21;49181.50;;;-149.77;49.71
60055;BME280;45930;53.514;55.904;2023-04-10T03:29:22;49161.69;;;-149.77;49.64
60055;BME280;45930;53.514;55.904;2023-04-10T03:30:22;49171.59;;;-149.77;48.89
60055;BME280;45930;53.514;55.904;2023-04-10T03:31:23;49191.38;;;-149.77;48.42
60055;BME280;45930;53.514;55.904;2023-04-10T03:32:24;49179.50;;;-149.77;48.36
60055;BME280;45930;53.514;55.904;2023-04-10T03:33:27;49175.53;;;-149.77;47.96
60055;BME280;45930;53.514;55.904;2023-04-10T03:34:28;49177.53;;;-149.77;47.79
60055;BME280;45930;53.514;55.904;2023-04-10T03:35:29;49175.53;;;-149.77;47.51
60055;BME280;45930;53.514;55.904;2023-04-10T03:36:29;49157.72;;;-149.77;47.47
60055;BME280;45930;53.514;55.904;2023-04-10T03:37:31;49187.44;;;-149.77;47.34
60055;BME280;45930;53.514;55.904;2023-04-10T03:38:32;49159.69;;;-149.77;47.32
60055;BME280;45930;53.514;55.904;2023-04-10T03:39:32;49161.69;;;-149.77;47.13
60055;BME280;45930;53.514;55.904;2023-04-10T03:40:33;49157.72;;;-149.77;46.49
60055;BME280;45930;53.514;55.904;2023-04-10T03:41:35;49159.69;;;-149.77;46.31
60055;BME280;45930;53.514;55.904;2023-04-10T03:42:36;49147.81;;;-149.77;46.37
60055;BME280;45930;53.514;55.904;2023-04-10T03:43:38;49143.84;;;-149.77;46.51
60055;BME280;45930;53.514;55.904;2023-04-10T03:44:38;49159.69;;;-149.77;46.19
60055;BME280;45930;53.514;55.904;2023-04-10T03:45:39;49153.75;;;-149.77;45.74
60055;BME280;45930;53.514;55.904;2023-04-10T03:46:40;49151.78;;;-149.77;45.74
60055;BME280;45930;53.514;55.904;2023-04-10T03:47:41;49141.88;;;-149.77;45.56
60055;BME280;45930;53.514;55.904;2023-04-10T03:48:42;49153.75;;;-149.77;45.52
60055;BME280;45930;53.514;55.904;2023-04-10T03:49:43;49133.94;;;-149.77;45.67
60055;BME280;45930;53.514;55.904;2023-04-10T03:50:44;49137.91;;;-149.77;45.73
60055;BME280;45930;53.514;55.904;2023-04-10T03:51:45;49143.84;;;-149.77;45.42
60055;BME280;45930;53.514;55.904;2023-04-10T03:52:45;49135.94;;;-149.77;45.17
60055;BME280;45930;53.514;55.904;2023-04-10T03:53:49;49151.78;;;-149.77;45.12
60055;BME280;45930;53.514;55.904;2023-04-10T03:54:50;49153.75;;;-149.77;44.81
60055;BME280;45930;53.514;55.904;2023-04-10T03:55:51;49130.00;;;-149.77;44.90
60055;BME280;45930;53.514;55.904;2023-04-10T03:56:52;49128.00;;;-149.77;44.42
60055;BME280;45930;53.514;55.904;2023-04-10T03:57:53;49112.16;;;-149.77;44.65
60055;BME280;45930;53.514;55.904;2023-04-10T03:58:53;49135.94;;;-149.77;44.53
60055;BME280;45930;53.514;55.904;2023-04-10T03:59:54;49108.19;;;-149.77;44.31
60055;BME280;45930;53.514;55.904;2023-04-10T04:00:55;49149.78;;;-149.77;43.80
60055;BME280;45930;53.514;55.904;2023-04-10T04:01:56;49135.94;;;-149.77;43.81
60055;BME280;45930;53.514;55.904;2023-04-10T04:02:57;49128.00;;;-149.77;43.65
60055;BME280;45930;53.514;55.904;2023-04-10T04:03:59;49130.00;;;-149.77;43.43
60055;BME280;45930;53.514;55.904;2023-04-10T04:04:59;49153.75;;;-149.77;43.17
60055;BME280;45930;53.514;55.904;2023-04-10T04:06:00;49131.97;;;-149.77;43.01
60055;BME280;45930;53.514;55.904;2023-04-10T04:07:01;49106.22;;;-149.77;42.95
60055;BME280;45930;53.514;55.904;2023-04-10T04:08:02;49120.09;;;-149.77;42.88
60055;BME280;45930;53.514;55.904;2023-04-10T04:09:06;49112.16;;;-149.77;42.56
60055;BME280;45930;53.514;55.904;2023-04-10T04:10:07;49130.00;;;-149.77;42.31
60055;BME280;45930;53.514;55.904;2023-04-10T04:11:07;49114.16;;;-149.77;42.72
60055;BME280;45930;53.514;55.904;2023-04-10T04:12:08;49120.09;;;-149.77;42.55
60055;BME280;45930;53.514;55.904;2023-04-10T04:13:09;49116.13;;;-149.77;42.12
60055;BME280;45930;53.514;55.904;2023-04-10T04:14:10;49124.03;;;-149.77;41.68
60055;BME280;45930;53.514;55.904;2023-04-10T04:15:11;49139.91;;;-149.77;41.56
60055;BME280;45930;53.514;55.904;2023-04-10T04:16:11;49104.25;;;-149.77;41.57
60055;BME280;45930;53.514;55.904;2023-04-10T04:17:12;49082.44;;;-149.77;41.56
60055;BME280;45930;53.514;55.904;2023-04-10T04:18:13;49122.06;;;-149.77;40.89
60055;BME280;45930;53.514;55.904;2023-04-10T04:19:15;49102.25;;;-149.77;40.37
60055;BME280;45930;53.514;55.904;2023-04-10T04:20:15;49104.25;;;-149.77;40.49
60055;BME280;45930;53.514;55.904;2023-04-10T04:21:16;49098.28;;;-149.77;40.64
60055;BME280;45930;53.514;55.904;2023-04-10T04:22:17;49090.38;;;-149.77;40.54
60055;BME280;45930;53.514;55.904;2023-04-10T04:23:18;49110.19;;;-149.77;40.33
60055;BME280;45930;53.514;55.904;2023-04-10T04:24:18;49102.25;;;-149.77;40.41
60055;BME280;45930;53.514;55.904;2023-04-10T04:25:19;49106.22;;;-149.77;40.28
60055;BME280;45930;53.514;55.904;2023-04-10T04:26:20;49110.19;;;-149.77;40.15
60055;BME280;45930;53.514;55.904;2023-04-10T04:27:21;49108.19;;;-149.77;39.71
60055;BME280;45930;53.514;55.904;2023-04-10T04:28:22;49076.50;;;-149.77;39.77
60055;BME280;45930;53.514;55.904;2023-04-10T04:29:23;49068.59;;;-149.77;39.67
60055;BME280;45930;53.514;55.904;2023-04-10T04:30:24;49080.47;;;-149.77;39.52
60055;BME280;45930;53.514;55.904;2023-04-10T04:31:25;49098.28;;;-149.77;39.20
60055;BME280;45930;53.514;55.904;2023-04-10T04:32:31;49094.34;;;-149.77;39.25
60055;BME280;45930;53.514;55.904;2023-04-10T04:33:32;49094.34;;;-149.77;39.16
60055;BME280;45930;53.514;55.904;2023-04-10T04:34:33;49084.44;;;-149.77;38.94
60055;BME280;45930;53.514;55.904;2023-04-10T04:35:33;49090.38;;;-149.77;38.70
60055;BME280;45930;53.514;55.904;2023-04-10T04:36:34;49086.41;;;-149.77;37.63
60055;BME280;45930;53.514;55.904;2023-04-10T04:37:35;49076.50;;;-149.77;37.16
60055;BME280;45930;53.514;55.904;2023-04-10T04:38:36;49080.47;;;-149.77;36.83
60055;BME280;45930;53.514;55.904;2023-04-10T04:39:36;49096.31;;;-149.77;37.08
60055;BME280;45930;53.514;55.904;2023-04-10T04:40:37;49082.44;;;-149.77;36.93
60055;BME280;45930;53.514;55.904;2023-04-10T04:41:38;49082.44;;;-149.77;36.67
60055;BME280;45930;53.514;55.904;2023-04-10T04:42:39;49076.50;;;-149.77;36.40
60055;BME280;45930;53.514;55.904;2023-04-10T04:43:39;49082.44;;;-149.77;36.35
60055;BME280;45930;53.514;55.904;2023-04-10T04:44:40;49078.50;;;-149.77;35.77
60055;BME280;45930;53.514;55.904;2023-04-10T04:45:41;49114.16;;;-149.77;35.52
60055;BME280;45930;53.514;55.904;2023-04-10T04:46:42;49080.47;;;-149.77;35.14
60055;BME280;45930;53.514;55.904;2023-04-10T04:47:43;49102.25;;;-149.77;34.68
60055;BME280;45930;53.514;55.904;2023-04-10T04:48:43;49100.28;;;-149.77;34.12
60055;BME280;45930;53.514;55.904;2023-04-10T04:49:44;49072.53;;;-149.77;33.16
60055;BME280;45930;53.514;55.904;2023-04-10T04:50:45;49062.66;;;-149.77;33.18
60055;BME280;45930;53.514;55.904;2023-04-10T04:51:46;49074.53;;;-149.77;33.24
60055;BME280;45930;53.514;55.904;2023-04-10T04:52:46;49062.66;;;-149.77;33.63
60055;BME280;45930;53.514;55.904;2023-04-10T04:53:47;49066.59;;;-149.77;33.69
60055;BME280;45930;53.514;55.904;2023-04-10T04:54:48;49078.50;;;-149.77;33.42
60055;BME280;45930;53.514;55.904;2023-04-10T04:55:49;49084.44;;;-149.77;32.72
60055;BME280;45930;53.514;55.904;2023-04-10T04:56:50;49080.47;;;-149.77;31.97
60055;BME280;45930;53.514;55.904;2023-04-10T04:57:56;49088.41;;;-149.77;32.12
60055;BME280;45930;53.514;55.904;2023-04-10T04:58:57;49088.41;;;-149.77;32.62
60055;BME280;45930;53.514;55.904;2023-04-10T04:59:58;49076.50;;;-149.77;32.73
60055;BME280;45930;53.514;55.904;2023-04-10T05:00:58;49068.59;;;-149.77;32.38
60055;BME280;45930;53.514;55.904;2023-04-10T05:01:59;49084.44;;;-149.77;32.16
60055;BME280;45930;53.514;55.904;2023-04-10T05:03:00;49074.53;;;-149.77;32.11
60055;BME280;45930;53.514;55.904;2023-04-10T05:04:01;49076.50;;;-149.77;31.76
60055;BME280;45930;53.514;55.904;2023-04-10T05:05:02;49104.25;;;-149.77;31.42
60055;BME280;45930;53.514;55.904;2023-04-10T05:06:03;49060.66;;;-149.77;31.64
60055;BME280;45930;53.514;55.904;2023-04-10T05:07:04;49082.44;;;-149.77;31.58
60055;BME280;45930;53.514;55.904;2023-04-10T05:08:05;49058.69;;;-149.77;31.39
60055;BME280;45930;53.514;55.904;2023-04-10T05:09:06;49058.69;;;-149.77;31.30
60055;BME280;45930;53.514;55.904;2023-04-10T05:10:07;49072.53;;;-149.77;31.12
60055;BME280;45930;53.514;55.904;2023-04-10T05:11:08;49070.56;;;-149.77;31.25
60055;BME280;45930;53.514;55.904;2023-04-10T05:12:09;49082.44;;;-149.77;31.45
60055;BME280;45930;53.514;55.904;2023-04-10T05:13:10;49064.63;;;-149.77;31.24
60055;BME280;45930;53.514;55.904;2023-04-10T05:14:10;49078.50;;;-149.77;31.12
60055;BME280;45930;53.514;55.904;2023-04-10T05:15:11;49076.50;;;-149.77;31.10
60055;BME280;45930;53.514;55.904;2023-04-10T05:16:12;49080.47;;;-149.77;30.86
60055;BME280;45930;53.514;55.904;2023-04-10T05:17:13;49088.41;;;-149.77;31.05
60055;BME280;45930;53.514;55.904;2023-04-10T05:18:15;49078.50;;;-149.77;31.05
60055;BME280;45930;53.514;55.904;2023-04-10T05:19:19;49086.41;;;-149.77;30.64
60055;BME280;45930;53.514;55.904;2023-04-10T05:20:20;49078.50;;;-149.77;30.81
60055;BME280;45930;53.514;55.904;2023-04-10T05:21:21;49078.50;;;-149.77;30.54
60055;BME280;45930;53.514;55.904;2023-04-10T05:22:22;49064.63;;;-149.77;30.63
60055;BME280;45930;53.514;55.904;2023-04-10T05:23:22;49068.59;;;-149.77;30.84
60055;BME280;45930;53.514;55.904;2023-04-10T05:24:23;49080.47;;;-149.77;30.42
60055;BME280;45930;53.514;55.904;2023-04-10T05:25:24;49082.44;;;-149.77;30.13
60055;BME280;45930;53.514;55.904;2023-04-10T05:26:25;49096.31;;;-149.77;29.77
60055;BME280;45930;53.514;55.904;2023-04-10T05:27:25;49076.50;;;-149.77;29.91
60055;BME280;45930;53.514;55.904;2023-04-10T05:28:26;49066.59;;;-149.77;30.11
60055;BME280;45930;53.514;55.904;2023-04-10T05:29:27;49076.50;;;-149.77;29.83
60055;BME280;45930;53.514;55.904;2023-04-10T05:30:28;49078.50;;;-149.77;29.62